createdAt,value
2023-09-28T00:00:03.006Z,940.86
2023-09-28T00:05:03.001Z,940.92
2023-09-28T00:10:03.014Z,940.88
2023-09-28T00:15:02.921Z,940.82
2023-09-28T00:20:02.985Z,940.84
2023-09-28T00:25:02.935Z,940.88
2023-09-28T00:30:03.637Z,940.90
2023-09-28T00:35:03.025Z,940.88
2023-09-28T00:40:08.174Z,940.90
2023-09-28T00:45:03.023Z,940.86
2023-09-28T00:50:03.053Z,940.88
2023-09-28T00:55:02.941Z,941.06
2023-09-28T01:00:03.139Z,941.09
2023-09-28T01:05:02.901Z,941.02
2023-09-28T01:10:03.023Z,941.02
2023-09-28T01:15:03.091Z,941.04
2023-09-28T01:20:03.031Z,941.09
2023-09-28T01:25:02.962Z,941.11
2023-09-28T01:30:03.087Z,941.19
2023-09-28T01:35:02.959Z,941.21
2023-09-28T01:40:03.206Z,941.15
2023-09-28T01:45:02.983Z,941.27
2023-09-28T01:50:03.050Z,941.31
2023-09-28T01:55:02.909Z,941.27
2023-09-28T02:00:02.950Z,941.37
2023-09-28T02:05:02.960Z,941.29
2023-09-28T02:10:02.949Z,941.25
2023-09-28T02:15:03.063Z,941.27
2023-09-28T02:20:03.131Z,941.23
2023-09-28T02:25:02.906Z,941.19
2023-09-28T02:30:03.010Z,941.35
2023-09-28T02:35:02.911Z,941.35
2023-09-28T02:40:03.102Z,941.35
2023-09-28T02:45:02.984Z,941.25
2023-09-28T02:50:03.065Z,941.21
2023-09-28T02:55:02.898Z,940.94
2023-09-28T03:00:03.085Z,941.04
2023-09-28T03:05:04.028Z,940.92
2023-09-28T03:10:03.011Z,940.92
2023-09-28T03:15:02.907Z,940.86
2023-09-28T03:20:03.023Z,940.76
2023-09-28T03:25:05.082Z,940.76
2023-09-28T03:30:03.087Z,940.84
2023-09-28T03:35:02.843Z,940.82
2023-09-28T03:40:03.019Z,940.70
2023-09-28T03:45:02.823Z,940.76
2023-09-28T03:50:03.037Z,940.70
2023-09-28T03:55:02.993Z,940.74
2023-09-28T04:00:03.018Z,940.78
2023-09-28T04:05:02.902Z,940.82
2023-09-28T04:10:03.894Z,940.78
2023-09-28T04:15:02.952Z,940.63
2023-09-28T04:20:03.134Z,940.57
2023-09-28T04:25:02.938Z,940.59
2023-09-28T04:30:03.047Z,940.57
2023-09-28T04:35:02.938Z,940.57
2023-09-28T04:40:03.198Z,940.59
2023-09-28T04:45:02.962Z,940.53
2023-09-28T04:50:03.076Z,940.45
2023-09-28T04:55:03.642Z,940.37
2023-09-28T05:00:03.191Z,940.29
2023-09-28T05:05:02.847Z,940.27
2023-09-28T05:10:02.998Z,940.21
2023-09-28T05:15:03.060Z,940.21
2023-09-28T05:20:03.020Z,940.17
2023-09-28T05:25:03.547Z,940.13
2023-09-28T05:30:03.172Z,940.08
2023-09-28T05:35:03.114Z,940.09
2023-09-28T05:40:02.989Z,940.11
2023-09-28T05:45:02.938Z,940.08
2023-09-28T05:50:02.938Z,940.06
2023-09-28T05:55:02.996Z,939.92
2023-09-28T06:00:07.999Z,939.84
2023-09-28T06:05:02.916Z,939.82
2023-09-28T06:10:02.943Z,939.74
2023-09-28T06:15:02.840Z,939.72
2023-09-28T06:20:03.089Z,939.66
2023-09-28T06:25:02.910Z,939.66
2023-09-28T06:30:02.938Z,939.62
2023-09-28T06:35:03.102Z,939.62
2023-09-28T06:40:03.072Z,939.62
2023-09-28T06:45:02.951Z,939.66
2023-09-28T06:50:03.057Z,939.62
2023-09-28T06:55:03.958Z,939.64
2023-09-28T07:00:02.970Z,939.64
2023-09-28T07:05:03.051Z,939.56
2023-09-28T07:10:02.839Z,939.56
2023-09-28T07:15:02.904Z,939.62
2023-09-28T07:20:03.049Z,939.60
2023-09-28T07:25:02.919Z,939.70
2023-09-28T07:30:03.009Z,939.72
2023-09-28T07:35:03.101Z,939.78
2023-09-28T07:40:03.041Z,939.80
2023-09-28T07:45:02.961Z,939.82
2023-09-28T07:50:03.118Z,939.82
2023-09-28T07:55:02.901Z,939.78
2023-09-28T08:00:03.010Z,939.84
2023-09-28T08:05:02.958Z,939.96
2023-09-28T08:10:05.268Z,939.96
2023-09-28T08:15:02.828Z,940.15
2023-09-28T08:20:03.055Z,940.00
2023-09-28T08:25:02.915Z,940.04
2023-09-28T08:30:03.856Z,940.09
2023-09-28T08:35:02.923Z,940.06
2023-09-28T08:40:03.264Z,940.11
2023-09-28T08:45:02.936Z,940.06
2023-09-28T08:50:08.063Z,940.06
2023-09-28T08:55:02.966Z,939.90
2023-09-28T09:00:03.119Z,939.86
2023-09-28T09:05:03.008Z,939.90
2023-09-28T09:10:03.038Z,939.98
2023-09-28T09:15:02.979Z,939.98
2023-09-28T09:20:03.159Z,940.11
2023-09-28T09:25:02.901Z,940.09
2023-09-28T09:30:03.153Z,940.08
2023-09-28T09:35:03.016Z,940.13
2023-09-28T09:40:02.956Z,940.15
2023-09-28T09:45:02.985Z,940.11
2023-09-28T09:50:03.076Z,940.23
2023-09-28T09:55:03.024Z,940.21
2023-09-28T10:00:02.985Z,940.25
2023-09-28T10:05:03.018Z,940.25
2023-09-28T10:10:03.019Z,940.17
2023-09-28T10:15:03.041Z,940.17
2023-09-28T10:20:03.052Z,940.19
2023-09-28T10:25:02.956Z,940.19
2023-09-28T10:30:03.068Z,940.29
2023-09-28T10:35:03.068Z,940.29
2023-09-28T10:40:04.036Z,940.35
2023-09-28T10:45:03.068Z,940.41
2023-09-28T10:50:03.118Z,940.35
2023-09-28T10:55:02.929Z,940.43
2023-09-28T11:00:03.023Z,940.47
2023-09-28T11:05:02.976Z,940.49
2023-09-28T11:10:03.020Z,940.39
2023-09-28T11:15:02.878Z,940.37
2023-09-28T11:20:03.074Z,940.35
2023-09-28T11:25:02.949Z,940.41
2023-09-28T11:30:03.002Z,940.45
2023-09-28T11:35:03.067Z,940.43
2023-09-28T11:40:03.191Z,940.31
2023-09-28T11:45:02.915Z,940.43
2023-09-28T11:50:03.120Z,940.49
2023-09-28T11:55:02.821Z,940.61
2023-09-28T12:00:03.047Z,940.72
2023-09-28T12:05:02.914Z,940.70
2023-09-28T12:10:04.457Z,940.68
2023-09-28T12:15:02.903Z,940.68
2023-09-28T12:20:03.062Z,940.64
2023-09-28T12:25:02.915Z,940.61
2023-09-28T12:30:02.998Z,940.61
2023-09-28T12:35:02.868Z,940.64
2023-09-28T12:40:03.001Z,940.64
2023-09-28T12:45:02.818Z,940.66
2023-09-28T12:50:02.991Z,940.66
2023-09-28T12:55:03.009Z,940.63
2023-09-28T13:00:03.180Z,940.57
2023-09-28T13:05:02.936Z,940.53
2023-09-28T13:10:02.973Z,940.55
2023-09-28T13:15:03.247Z,940.59
2023-09-28T13:20:03.076Z,940.70
2023-09-28T13:25:02.985Z,940.80
2023-09-28T13:30:03.026Z,940.82
2023-09-28T13:35:02.982Z,940.80
2023-09-28T13:40:03.043Z,940.76
2023-09-28T13:45:02.877Z,940.76
2023-09-28T13:50:03.063Z,940.80
2023-09-28T13:55:03.044Z,940.78
2023-09-28T14:00:02.963Z,940.84
2023-09-28T14:05:02.918Z,941.02
2023-09-28T14:10:03.018Z,941.09
2023-09-28T14:15:02.971Z,941.11
2023-09-28T14:20:03.110Z,941.08
2023-09-28T14:25:03.131Z,941.02
2023-09-28T14:30:03.100Z,940.94
2023-09-28T14:35:02.970Z,940.94
2023-09-28T14:40:03.125Z,940.94
2023-09-28T14:45:02.933Z,941.02
2023-09-28T14:50:03.053Z,941.08
2023-09-28T14:55:02.854Z,941.06
2023-09-28T15:00:02.956Z,940.94
2023-09-28T15:05:02.928Z,940.90
2023-09-28T15:10:03.064Z,941.02
2023-09-28T15:15:02.911Z,940.92
2023-09-28T15:20:03.015Z,940.84
2023-09-28T15:25:02.920Z,940.82
2023-09-28T15:30:03.001Z,940.76
2023-09-28T15:35:02.943Z,940.76
2023-09-28T15:40:02.999Z,940.76
2023-09-28T15:45:02.999Z,940.74
2023-09-28T15:50:03.067Z,940.68
2023-09-28T15:55:02.927Z,940.57
2023-09-28T16:00:03.019Z,940.47
2023-09-28T16:05:03.130Z,940.47
2023-09-28T16:10:03.038Z,940.41
2023-09-28T16:15:02.903Z,940.31
2023-09-28T16:20:03.197Z,940.19
2023-09-28T16:25:02.925Z,940.19
2023-09-28T16:30:03.011Z,940.15
2023-09-28T16:35:02.858Z,940.09
2023-09-28T16:40:03.001Z,940.06
2023-09-28T16:45:02.919Z,940.02
2023-09-28T16:50:03.053Z,939.98
2023-09-28T16:55:02.857Z,939.90
2023-09-28T17:00:02.962Z,939.84
2023-09-28T17:05:02.910Z,939.84
2023-09-28T17:10:02.984Z,939.76
2023-09-28T17:15:02.930Z,939.66
2023-09-28T17:20:02.989Z,939.66
2023-09-28T17:25:03.040Z,939.64
2023-09-28T17:30:03.107Z,939.66
2023-09-28T17:35:02.989Z,939.58
2023-09-28T17:40:03.223Z,939.49
2023-09-28T17:45:03.061Z,939.51
2023-09-28T17:50:02.990Z,939.51
2023-09-28T17:55:02.967Z,939.45
2023-09-28T18:00:03.076Z,939.35
2023-09-28T18:05:03.000Z,939.29
2023-09-28T18:10:03.154Z,939.21
2023-09-28T18:15:03.453Z,939.15
2023-09-28T18:20:02.998Z,939.13
2023-09-28T18:25:02.982Z,939.15
2023-09-28T18:30:02.979Z,939.13
2023-09-28T18:35:02.970Z,939.17
2023-09-28T18:40:03.028Z,939.11
2023-09-28T18:45:02.967Z,939.11
2023-09-28T18:50:03.119Z,939.15
2023-09-28T18:55:02.813Z,939.15
2023-09-28T19:00:03.015Z,939.19
2023-09-28T19:05:02.875Z,939.21
2023-09-28T19:10:07.989Z,939.23
2023-09-28T19:15:03.029Z,939.21
2023-09-28T19:20:03.073Z,939.27
2023-09-28T19:25:02.923Z,939.25
2023-09-28T19:30:03.048Z,939.23
2023-09-28T19:35:02.912Z,939.19
2023-09-28T19:40:02.996Z,939.19
2023-09-28T19:45:02.916Z,939.19
2023-09-28T19:50:02.987Z,939.21
2023-09-28T19:55:07.970Z,939.13
2023-09-28T20:00:03.062Z,939.13
2023-09-28T20:05:02.940Z,939.13
2023-09-28T20:10:02.988Z,939.19
2023-09-28T20:15:02.938Z,939.19
2023-09-28T20:20:03.144Z,939.21
2023-09-28T20:25:02.925Z,939.25
2023-09-28T20:30:03.051Z,939.37
2023-09-28T20:35:02.965Z,939.41
2023-09-28T20:40:03.048Z,939.51
2023-09-28T20:45:02.924Z,939.58
2023-09-28T20:50:03.482Z,939.56
2023-09-28T20:55:07.949Z,939.58
2023-09-28T21:00:03.048Z,939.66
2023-09-28T21:05:02.926Z,939.70
2023-09-28T21:10:02.975Z,939.80
2023-09-28T21:15:02.963Z,939.84
2023-09-28T21:20:03.042Z,939.86
2023-09-28T21:25:02.944Z,939.86
2023-09-28T21:30:03.216Z,939.88
2023-09-28T21:35:02.998Z,939.86
2023-09-28T21:40:03.032Z,939.92
2023-09-28T21:45:02.954Z,940.06
2023-09-28T21:50:03.017Z,940.11
2023-09-28T21:55:03.113Z,940.15
2023-09-28T22:00:03.093Z,940.19
2023-09-28T22:05:02.916Z,940.23
2023-09-28T22:10:08.216Z,940.27
2023-09-28T22:15:03.003Z,940.31
2023-09-28T22:20:03.101Z,940.41
2023-09-28T22:25:02.991Z,940.45
2023-09-28T22:30:03.268Z,940.47
2023-09-28T22:35:02.945Z,940.47
2023-09-28T22:40:12.131Z,940.53
2023-09-28T22:45:02.856Z,940.59
2023-09-28T22:50:02.971Z,940.59
2023-09-28T22:55:02.838Z,940.61
2023-09-28T23:00:03.152Z,940.70
2023-09-28T23:05:02.995Z,940.70
2023-09-28T23:10:03.034Z,940.78
2023-09-28T23:15:02.928Z,940.82
2023-09-28T23:20:03.002Z,940.86
2023-09-28T23:25:02.843Z,940.94
2023-09-28T23:30:02.962Z,941.08
2023-09-28T23:35:02.844Z,941.19
2023-09-28T23:40:03.003Z,941.27
2023-09-28T23:45:02.981Z,941.37
2023-09-28T23:50:03.106Z,941.47
2023-09-28T23:55:02.964Z,941.55
